Nambe, New Mexico
Current Conditions -  °F | °C
As of 1:53 PM on Thursday 27 Nov 2014 (Local Time) from KSAF Reporting Station
Clear Clear  
Wind Chill: 58°   Ceiling: Unl
Heat Index: 58°   Visibility: 10mi
Dew Point: 20°   Wind: 8mph
Humidity: 23%   Direction: 200°SSW
Pressure: 30.36"   Gusts: NA
Location:  35.7017°N, 105.921°W
Report Text: KSAF 272053Z 20007KT 10SM CLR 14/M07 A3036 RMK AO2 SLP243 T01441067 56022
Loading
Personal Weather Stations






























Interactive Weather Map New forecast layout! Learn more

10-Day Weather Forecast

Advertisements
Track Severe Weather on mobile